sensor_id;sensor_type;location;lat;lon;timestamp;pressure;altitude;pressure_sealevel;temperature;humidity
11038;BME280;5572;49.540;11.932;2023-05-01T02:30:20;96871.06;;;6.88;100.00
11038;BME280;5572;49.540;11.932;2023-05-01T02:32:46;96869.59;;;7.07;100.00
11038;BME280;5572;49.540;11.932;2023-05-01T02:35:13;96860.31;;;7.34;100.00
11038;BME280;5572;49.540;11.932;2023-05-01T02:37:41;96853.06;;;7.35;100.00
11038;BME280;5572;49.540;11.932;2023-05-01T02:40:10;96848.53;;;7.40;100.00
11038;BME280;5572;49.540;11.932;2023-05-01T02:42:39;96846.38;;;7.47;100.00
11038;BME280;5572;49.540;11.932;2023-05-01T02:45:09;96840.97;;;7.37;100.00
11038;BME280;5572;49.540;11.932;2023-05-01T02:47:38;96850.66;;;7.38;100.00
11038;BME280;5572;49.540;11.932;2023-05-01T02:50:08;96838.47;;;7.21;100.00
11038;BME280;5572;49.540;11.932;2023-05-01T02:52:36;96834.56;;;7.48;100.00
11038;BME280;5572;49.540;11.932;2023-05-01T02:55:04;96825.16;;;7.46;100.00
11038;BME280;5572;49.540;11.932;2023-05-01T02:57:31;96814.06;;;7.37;100.00
11038;BME280;5572;49.540;11.932;2023-05-01T02:59:58;96803.63;;;7.46;100.00
11038;BME280;5572;49.540;11.932;2023-05-01T03:02:25;96789.66;;;7.54;100.00
11038;BME280;5572;49.540;11.932;2023-05-01T03:04:53;96796.78;;;7.13;100.00
11038;BME280;5572;49.540;11.932;2023-05-01T03:07:19;96793.34;;;7.28;100.00
11038;BME280;5572;49.540;11.932;2023-05-01T03:09:47;96793.00;;;7.09;100.00
11038;BME280;5572;49.540;11.932;2023-05-01T03:12:13;96781.28;;;7.45;100.00
11038;BME280;5572;49.540;11.932;2023-05-01T03:14:40;96783.75;;;7.47;100.00
11038;BME280;5572;49.540;11.932;2023-05-01T03:17:06;96784.97;;;7.19;100.00
11038;BME280;5572;49.540;11.932;2023-05-01T03:19:33;96782.88;;;7.36;100.00
11038;BME280;5572;49.540;11.932;2023-05-01T03:22:02;96771.03;;;7.27;100.00
11038;BME280;5572;49.540;11.932;2023-05-01T03:24:29;96767.50;;;7.22;100.00
11038;BME280;5572;49.540;11.932;2023-05-01T03:26:55;96766.94;;;7.15;100.00
11038;BME280;5572;49.540;11.932;2023-05-01T03:29:23;96767.25;;;7.28;100.00
11038;BME280;5572;49.540;11.932;2023-05-01T03:31:50;96771.69;;;6.93;100.00
11038;BME280;5572;49.540;11.932;2023-05-01T03:34:16;96760.47;;;7.11;100.00
11038;BME280;5572;49.540;11.932;2023-05-01T03:36:43;96757.78;;;7.06;100.00
11038;BME280;5572;49.540;11.932;2023-05-01T03:39:11;96747.69;;;7.43;100.00
11038;BME280;5572;49.540;11.932;2023-05-01T03:41:37;96749.78;;;7.31;100.00
11038;BME280;5572;49.540;11.932;2023-05-01T03:44:04;96746.25;;;7.15;100.00
11038;BME280;5572;49.540;11.932;2023-05-01T03:46:30;96752.13;;;7.02;100.00
11038;BME280;5572;49.540;11.932;2023-05-01T03:48:57;96754.25;;;7.00;100.00
11038;BME280;5572;49.540;11.932;2023-05-01T03:51:23;96750.97;;;6.83;100.00
11038;BME280;5572;49.540;11.932;2023-05-01T03:53:51;96749.63;;;6.91;100.00
11038;BME280;5572;49.540;11.932;2023-05-01T03:56:22;96744.47;;;6.80;100.00
11038;BME280;5572;49.540;11.932;2023-05-01T03:58:50;96743.09;;;6.72;100.00
11038;BME280;5572;49.540;11.932;2023-05-01T04:01:16;96753.03;;;6.72;100.00
11038;BME280;5572;49.540;11.932;2023-05-01T04:03:43;96745.31;;;6.90;100.00
11038;BME280;5572;49.540;11.932;2023-05-01T04:06:10;96742.44;;;7.01;100.00
11038;BME280;5572;49.540;11.932;2023-05-01T04:08:36;96747.78;;;6.96;100.00
11038;BME280;5572;49.540;11.932;2023-05-01T04:11:03;96750.69;;;6.90;100.00
11038;BME280;5572;49.540;11.932;2023-05-01T04:13:31;96745.88;;;6.87;100.00
11038;BME280;5572;49.540;11.932;2023-05-01T04:15:58;96752.09;;;6.97;100.00
11038;BME280;5572;49.540;11.932;2023-05-01T04:18:25;96735.00;;;7.28;100.00
11038;BME280;5572;49.540;11.932;2023-05-01T04:20:51;96738.31;;;6.89;100.00
11038;BME280;5572;49.540;11.932;2023-05-01T04:23:18;96726.34;;;7.11;100.00
11038;BME280;5572;49.540;11.932;2023-05-01T04:25:45;96734.47;;;7.31;100.00
11038;BME280;5572;49.540;11.932;2023-05-01T04:28:12;96723.97;;;7.25;100.00
11038;BME280;5572;49.540;11.932;2023-05-01T04:30:47;96726.16;;;7.33;100.00
11038;BME280;5572;49.540;11.932;2023-05-01T04:33:16;96724.25;;;7.28;100.00
11038;BME280;5572;49.540;11.932;2023-05-01T04:35:43;96719.41;;;7.25;100.00
11038;BME280;5572;49.540;11.932;2023-05-01T04:38:11;96711.28;;;7.10;100.00
11038;BME280;5572;49.540;11.932;2023-05-01T04:40:38;96723.66;;;7.11;100.00
11038;BME280;5572;49.540;11.932;2023-05-01T04:43:06;96704.09;;;7.26;100.00
11038;BME280;5572;49.540;11.932;2023-05-01T04:45:33;96715.06;;;7.09;100.00
11038;BME280;5572;49.540;11.932;2023-05-01T04:48:01;96699.50;;;7.26;100.00
11038;BME280;5572;49.540;11.932;2023-05-01T04:50:27;96711.91;;;7.37;100.00
11038;BME280;5572;49.540;11.932;2023-05-01T04:52:54;96708.97;;;7.44;100.00
11038;BME280;5572;49.540;11.932;2023-05-01T04:55:20;96708.16;;;7.48;100.00
11038;BME280;5572;49.540;11.932;2023-05-01T04:57:47;96715.72;;;7.61;100.00
11038;BME280;5572;49.540;11.932;2023-05-01T05:00:14;96711.44;;;7.70;100.00
11038;BME280;5572;49.540;11.932;2023-05-01T05:02:43;96706.34;;;7.78;100.00
11038;BME280;5572;49.540;11.932;2023-05-01T05:05:11;96688.31;;;7.89;100.00
11038;BME280;5572;49.540;11.932;2023-05-01T05:07:38;96683.19;;;8.02;100.00
11038;BME280;5572;49.540;11.932;2023-05-01T05:10:05;96678.63;;;7.93;100.00
11038;BME280;5572;49.540;11.932;2023-05-01T05:12:32;96674.31;;;8.07;100.00
11038;BME280;5572;49.540;11.932;2023-05-01T05:14:58;96667.56;;;8.29;100.00
11038;BME280;5572;49.540;11.932;2023-05-01T05:17:25;96652.50;;;8.33;100.00
11038;BME280;5572;49.540;11.932;2023-05-01T05:19:51;96642.44;;;8.58;100.00
11038;BME280;5572;49.540;11.932;2023-05-01T05:22:19;96614.97;;;9.15;100.00
11038;BME280;5572;49.540;11.932;2023-05-01T05:24:46;96568.34;;;9.81;100.00
11038;BME280;5572;49.540;11.932;2023-05-01T05:27:12;96528.31;;;10.39;100.00
11038;BME280;5572;49.540;11.932;2023-05-01T05:29:40;96541.44;;;9.71;100.00
11038;BME280;5572;49.540;11.932;2023-05-01T05:32:06;96516.66;;;10.39;100.00
11038;BME280;5572;49.540;11.932;2023-05-01T05:34:33;96460.97;;;10.98;100.00
11038;BME280;5572;49.540;11.932;2023-05-01T05:36:59;96476.16;;;9.92;100.00
11038;BME280;5572;49.540;11.932;2023-05-01T05:39:28;96503.09;;;9.45;100.00
11038;BME280;5572;49.540;11.932;2023-05-01T05:41:54;96503.75;;;9.61;100.00
11038;BME280;5572;49.540;11.932;2023-05-01T05:44:21;96517.97;;;9.38;100.00
11038;BME280;5572;49.540;11.932;2023-05-01T05:46:47;96546.47;;;9.16;100.00
11038;BME280;5572;49.540;11.932;2023-05-01T05:49:14;96552.03;;;9.29;100.00
11038;BME280;5572;49.540;11.932;2023-05-01T05:51:41;96533.13;;;9.62;100.00
11038;BME280;5572;49.540;11.932;2023-05-01T05:54:07;96556.91;;;9.27;100.00
11038;BME280;5572;49.540;11.932;2023-05-01T05:56:35;96571.69;;;9.35;100.00
11038;BME280;5572;49.540;11.932;2023-05-01T05:59:02;96596.22;;;8.90;100.00
11038;BME280;5572;49.540;11.932;2023-05-01T06:01:30;96609.94;;;8.98;100.00
11038;BME280;5572;49.540;11.932;2023-05-01T06:03:57;96598.56;;;9.06;100.00
11038;BME280;5572;49.540;11.932;2023-05-01T06:06:24;96586.22;;;9.72;100.00
11038;BME280;5572;49.540;11.932;2023-05-01T06:08:51;96555.84;;;10.41;100.00
11038;BME280;5572;49.540;11.932;2023-05-01T06:11:18;96511.56;;;10.79;100.00
11038;BME280;5572;49.540;11.932;2023-05-01T06:13:47;96431.72;;;12.44;100.00
11038;BME280;5572;49.540;11.932;2023-05-01T06:16:14;96357.44;;;13.02;100.00
11038;BME280;5572;49.540;11.932;2023-05-01T06:18:40;96216.47;;;14.43;100.00
11038;BME280;5572;49.540;11.932;2023-05-01T06:21:07;96153.59;;;14.44;100.00
11038;BME280;5572;49.540;11.932;2023-05-01T06:23:34;96221.97;;;12.32;100.00
11038;BME280;5572;49.540;11.932;2023-05-01T06:26:00;96189.56;;;13.65;100.00
11038;BME280;5572;49.540;11.932;2023-05-01T06:28:27;96153.59;;;14.44;100.00
11038;BME280;5572;49.540;11.932;2023-05-01T06:30:55;96142.69;;;13.34;100.00
11038;BME280;5572;49.540;11.932;2023-05-01T06:33:21;96095.34;;;14.54;100.00
11038;BME280;5572;49.540;11.932;2023-05-01T06:35:48;96065.69;;;14.06;100.00
11038;BME280;5572;49.540;11.932;2023-05-01T06:38:15;96044.97;;;13.60;100.00
11038;BME280;5572;49.540;11.932;2023-05-01T06:40:41;96189.44;;;12.32;100.00
11038;BME280;5572;49.540;11.932;2023-05-01T06:43:11;96093.28;;;15.17;100.00
11038;BME280;5572;49.540;11.932;2023-05-01T06:45:37;96168.38;;;12.29;100.00
11038;BME280;5572;49.540;11.932;2023-05-01T06:48:07;96164.50;;;12.74;100.00
11038;BME280;5572;49.540;11.932;2023-05-01T06:50:34;96225.16;;;12.78;100.00
11038;BME280;5572;49.540;11.932;2023-05-01T06:53:00;96030.84;;;15.41;100.00
11038;BME280;5572;49.540;11.932;2023-05-01T06:55:27;95993.13;;;14.07;100.00
11038;BME280;5572;49.540;11.932;2023-05-01T06:57:55;96090.31;;;13.25;100.00
11038;BME280;5572;49.540;11.932;2023-05-01T07:00:22;96055.75;;;14.19;100.00
11038;BME280;5572;49.540;11.932;2023-05-01T07:02:49;95859.34;;;16.12;100.00
11038;BME280;5572;49.540;11.932;2023-05-01T07:05:17;96079.53;;;12.95;100.00
11038;BME280;5572;49.540;11.932;2023-05-01T07:07:44;96142.28;;;13.66;100.00
11038;BME280;5572;49.540;11.932;2023-05-01T07:10:10;96074.16;;;13.20;100.00
11038;BME280;5572;49.540;11.932;2023-05-01T07:12:37;96086.56;;;14.48;100.00
11038;BME280;5572;49.540;11.932;2023-05-01T07:15:04;96106.22;;;14.54;100.00
11038;BME280;5572;49.540;11.932;2023-05-01T07:17:31;96215.81;;;14.29;100.00
11038;BME280;5572;49.540;11.932;2023-05-01T07:19:57;96209.59;;;14.20;100.00
11038;BME280;5572;49.540;11.932;2023-05-01T07:22:26;96234.66;;;13.91;100.00
11038;BME280;5572;49.540;11.932;2023-05-01T07:24:53;96290.59;;;13.84;100.00
11038;BME280;5572;49.540;11.932;2023-05-01T07:27:19;96299.59;;;12.72;100.00
11038;BME280;5572;49.540;11.932;2023-05-01T07:29:46;96332.50;;;12.92;100.00
11038;BME280;5572;49.540;11.932;2023-05-01T07:32:12;96233.03;;;14.83;100.00
11038;BME280;5572;49.540;11.932;2023-05-01T07:34:39;96159.41;;;15.17;100.00
11038;BME280;5572;49.540;11.932;2023-05-01T07:37:06;96169.09;;;15.44;100.00
11038;BME280;5572;49.540;11.932;2023-05-01T07:39:34;96173.63;;;14.23;100.00
11038;BME280;5572;49.540;11.932;2023-05-01T07:42:00;96052.31;;;16.27;100.00
11038;BME280;5572;49.540;11.932;2023-05-01T07:44:27;96028.63;;;15.75;100.00
11038;BME280;5572;49.540;11.932;2023-05-01T07:46:53;96125.63;;;15.18;100.00
11038;BME280;5572;49.540;11.932;2023-05-01T07:49:20;96122.22;;;14.92;100.00
11038;BME280;5572;49.540;11.932;2023-05-01T07:51:46;96079.97;;;16.05;100.00
11038;BME280;5572;49.540;11.932;2023-05-01T07:54:13;96134.13;;;15.25;100.00
11038;BME280;5572;49.540;11.932;2023-05-01T07:56:42;96101.41;;;14.59;100.00
11038;BME280;5572;49.540;11.932;2023-05-01T07:59:08;96179.84;;;15.40;100.00
11038;BME280;5572;49.540;11.932;2023-05-01T08:01:35;96133.44;;;15.28;100.00
11038;BME280;5572;49.540;11.932;2023-05-01T08:04:02;96198.72;;;14.37;100.00
11038;BME280;5572;49.540;11.932;2023-05-01T08:06:29;96219.31;;;14.63;100.00
11038;BME280;5572;49.540;11.932;2023-05-01T08:08:55;96183.63;;;15.27;100.00
11038;BME280;5572;49.540;11.932;2023-05-01T08:11:22;96111.38;;;15.50;100.00
11038;BME280;5572;49.540;11.932;2023-05-01T08:13:50;96027.63;;;15.79;100.00
11038;BME280;5572;49.540;11.932;2023-05-01T08:16:17;95986.44;;;15.93;100.00
11038;BME280;5572;49.540;11.932;2023-05-01T08:18:44;96083.78;;;15.92;100.00
11038;BME280;5572;49.540;11.932;2023-05-01T08:21:11;96002.50;;;16.50;100.00
11038;BME280;5572;49.540;11.932;2023-05-01T08:23:38;96015.53;;;15.68;100.00
11038;BME280;5572;49.540;11.932;2023-05-01T08:26:04;96046.53;;;16.29;100.00
11038;BME280;5572;49.540;11.932;2023-05-01T08:28:31;96031.75;;;16.62;100.00
11038;BME280;5572;49.540;11.932;2023-05-01T09:17:31;96066.31;;;16.94;100.00
11038;BME280;5572;49.540;11.932;2023-05-01T09:20:02;96044.81;;;16.92;100.00
11038;BME280;5572;49.540;11.932;2023-05-01T09:22:32;95963.06;;;16.04;100.00
11038;BME280;5572;49.540;11.932;2023-05-01T09:25:01;96003.91;;;17.83;100.00
11038;BME280;5572;49.540;11.932;2023-05-01T09:27:33;95819.28;;;18.04;100.00
11038;BME280;5572;49.540;11.932;2023-05-01T09:30:03;96102.13;;;16.68;100.00
11038;BME280;5572;49.540;11.932;2023-05-01T09:32:34;95984.34;;;16.22;100.00
11038;BME280;5572;49.540;11.932;2023-05-01T09:35:10;95996.69;;;16.64;100.00
11038;BME280;5572;49.540;11.932;2023-05-01T09:37:38;96006.59;;;16.12;100.00
11038;BME280;5572;49.540;11.932;2023-05-01T09:40:08;96049.91;;;15.41;100.00
11038;BME280;5572;49.540;11.932;2023-05-01T09:42:38;95993.03;;;17.20;100.00
11038;BME280;5572;49.540;11.932;2023-05-01T11:58:06;95958.44;;;19.32;100.00
11038;BME280;5572;49.540;11.932;2023-05-01T12:57:52;96128.84;;;18.61;100.00
11038;BME280;5572;49.540;11.932;2023-05-01T13:00:20;96191.34;;;18.19;100.00
11038;BME280;5572;49.540;11.932;2023-05-01T13:02:48;96179.84;;;18.26;100.00
11038;BME280;5572;49.540;11.932;2023-05-01T13:05:15;96240.44;;;17.65;100.00
11038;BME280;5572;49.540;11.932;2023-05-01T13:07:47;96281.78;;;18.11;100.00
11038;BME280;5572;49.540;11.932;2023-05-01T13:10:28;96301.63;;;17.96;100.00
11038;BME280;5572;49.540;11.932;2023-05-01T13:12:58;96320.88;;;17.76;100.00
11038;BME280;5572;49.540;11.932;2023-05-01T13:15:25;96314.81;;;17.70;100.00
11038;BME280;5572;49.540;11.932;2023-05-01T13:18:03;96388.25;;;17.27;100.00
11038;BME280;5572;49.540;11.932;2023-05-01T14:13:46;96916.19;;;14.70;100.00
11038;BME280;5572;49.540;11.932;2023-05-01T14:33:40;96795.16;;;13.83;100.00
11038;BME280;5572;49.540;11.932;2023-05-01T14:36:07;96755.84;;;13.68;100.00
11038;BME280;5572;49.540;11.932;2023-05-01T14:38:33;96738.94;;;13.30;100.00
11038;BME280;5572;49.540;11.932;2023-05-01T14:41:03;96717.44;;;13.34;100.00
11038;BME280;5572;49.540;11.932;2023-05-01T14:43:30;96704.56;;;13.12;100.00
11038;BME280;5572;49.540;11.932;2023-05-01T14:45:58;96682.50;;;12.74;100.00
11038;BME280;5572;49.540;11.932;2023-05-01T14:48:31;96649.41;;;12.90;100.00
11038;BME280;5572;49.540;11.932;2023-05-01T14:51:03;96645.06;;;13.02;100.00
11038;BME280;5572;49.540;11.932;2023-05-01T14:53:30;96604.72;;;13.23;100.00
11038;BME280;5572;49.540;11.932;2023-05-01T14:55:57;96584.56;;;13.15;100.00
11038;BME280;5572;49.540;11.932;2023-05-01T14:58:23;96560.84;;;13.07;100.00
11038;BME280;5572;49.540;11.932;2023-05-01T15:00:50;96532.34;;;13.32;100.00
11038;BME280;5572;49.540;11.932;2023-05-01T15:03:16;96520.56;;;13.23;100.00
11038;BME280;5572;49.540;11.932;2023-05-01T15:05:43;96507.28;;;13.35;100.00
11038;BME280;5572;49.540;11.932;2023-05-01T15:08:11;96491.34;;;13.64;100.00
11038;BME280;5572;49.540;11.932;2023-05-01T15:10:38;96471.91;;;13.48;100.00
11038;BME280;5572;49.540;11.932;2023-05-01T15:13:04;96465.69;;;13.48;100.00
11038;BME280;5572;49.540;11.932;2023-05-01T15:15:31;96445.88;;;13.47;100.00
11038;BME280;5572;49.540;11.932;2023-05-01T15:17:58;96435.56;;;13.58;100.00
11038;BME280;5572;49.540;11.932;2023-05-01T15:20:24;96428.94;;;13.20;100.00
11038;BME280;5572;49.540;11.932;2023-05-01T15:22:51;96436.69;;;12.78;100.00
11038;BME280;5572;49.540;11.932;2023-05-01T15:25:19;96407.19;;;12.63;100.00
11038;BME280;5572;49.540;11.932;2023-05-01T15:27:45;96391.94;;;12.67;100.00
11038;BME280;5572;49.540;11.932;2023-05-01T15:30:14;96360.06;;;13.38;100.00
11038;BME280;5572;49.540;11.932;2023-05-01T15:32:41;96376.28;;;12.86;100.00
11038;BME280;5572;49.540;11.932;2023-05-01T15:35:07;96354.66;;;13.16;100.00
11038;BME280;5572;49.540;11.932;2023-05-01T15:37:34;96346.41;;;12.99;100.00
11038;BME280;5572;49.540;11.932;2023-05-01T15:40:00;96319.19;;;13.12;100.00
11038;BME280;5572;49.540;11.932;2023-05-01T15:42:29;96311.31;;;13.33;100.00
11038;BME280;5572;49.540;11.932;2023-05-01T15:44:56;96300.16;;;13.43;100.00
11038;BME280;5572;49.540;11.932;2023-05-01T15:47:23;96277.50;;;13.86;100.00
11038;BME280;5572;49.540;11.932;2023-05-01T15:49:50;96277.13;;;13.71;100.00
11038;BME280;5572;49.540;11.932;2023-05-01T15:52:16;96267.00;;;13.63;100.00
11038;BME280;5572;49.540;11.932;2023-05-01T15:54:44;96263.56;;;13.79;100.00
11038;BME280;5572;49.540;11.932;2023-05-01T15:57:12;96262.38;;;13.55;100.00
11038;BME280;5572;49.540;11.932;2023-05-01T15:59:39;96253.50;;;13.79;100.00
11038;BME280;5572;49.540;11.932;2023-05-01T16:02:06;96257.09;;;13.50;100.00
11038;BME280;5572;49.540;11.932;2023-05-01T16:04:33;96237.44;;;13.53;100.00
11038;BME280;5572;49.540;11.932;2023-05-01T16:07:00;96238.59;;;13.60;100.00
11038;BME280;5572;49.540;11.932;2023-05-01T16:09:29;96250.34;;;13.39;100.00
11038;BME280;5572;49.540;11.932;2023-05-01T16:11:56;96231.88;;;13.58;100.00
11038;BME280;5572;49.540;11.932;2023-05-01T16:14:23;96227.94;;;13.25;100.00
11038;BME280;5572;49.540;11.932;2023-05-01T16:16:52;96221.31;;;13.48;100.00
11038;BME280;5572;49.540;11.932;2023-05-01T16:19:18;96214.13;;;13.52;100.00
11038;BME280;5572;49.540;11.932;2023-05-01T16:21:45;96206.63;;;13.49;100.00
11038;BME280;5572;49.540;11.932;2023-05-01T16:24:12;96210.31;;;13.61;100.00
11038;BME280;5572;49.540;11.932;2023-05-01T16:26:39;96206.16;;;13.55;100.00
11038;BME280;5572;49.540;11.932;2023-05-01T16:29:06;96202.72;;;13.33;100.00
11038;BME280;5572;49.540;11.932;2023-05-01T16:31:36;96192.22;;;13.48;100.00
11038;BME280;5572;49.540;11.932;2023-05-01T16:34:05;96189.06;;;13.63;100.00
11038;BME280;5572;49.540;11.932;2023-05-01T16:36:33;96222.00;;;13.14;100.00
11038;BME280;5572;49.540;11.932;2023-05-01T16:39:00;96202.56;;;12.90;100.00
11038;BME280;5572;49.540;11.932;2023-05-01T16:41:27;96193.84;;;13.02;100.00
11038;BME280;5572;49.540;11.932;2023-05-01T16:43:57;96207.94;;;12.82;100.00
11038;BME280;5572;49.540;11.932;2023-05-01T16:46:24;96211.97;;;12.63;100.00
11038;BME280;5572;49.540;11.932;2023-05-01T16:48:51;96216.00;;;12.74;100.00
11038;BME280;5572;49.540;11.932;2023-05-01T16:51:18;96226.88;;;12.74;100.00
11038;BME280;5572;49.540;11.932;2023-05-01T16:53:45;96212.66;;;12.46;100.00
11038;BME280;5572;49.540;11.932;2023-05-01T16:56:12;96228.47;;;12.31;100.00
11038;BME280;5572;49.540;11.932;2023-05-01T16:58:38;96216.69;;;12.27;100.00
11038;BME280;5572;49.540;11.932;2023-05-01T17:01:05;96213.09;;;12.40;100.00
11038;BME280;5572;49.540;11.932;2023-05-01T17:03:31;96220.06;;;12.10;100.00
11038;BME280;5572;49.540;11.932;2023-05-01T17:05:59;96209.41;;;12.36;100.00
11038;BME280;5572;49.540;11.932;2023-05-01T17:08:27;96221.19;;;12.18;100.00
11038;BME280;5572;49.540;11.932;2023-05-01T17:10:53;96212.28;;;12.17;100.00
11038;BME280;5572;49.540;11.932;2023-05-01T17:13:20;96205.81;;;12.05;100.00
11038;BME280;5572;49.540;11.932;2023-05-01T17:15:46;96223.16;;;11.82;100.00
11038;BME280;5572;49.540;11.932;2023-05-01T17:18:13;96214.50;;;11.80;100.00
11038;BME280;5572;49.540;11.932;2023-05-01T17:20:40;96207.84;;;12.00;100.00
11038;BME280;5572;49.540;11.932;2023-05-01T17:23:07;96207.44;;;12.06;100.00
11038;BME280;5572;49.540;11.932;2023-05-01T17:25:35;96214.97;;;11.96;100.00
11038;BME280;5572;49.540;11.932;2023-05-01T17:28:02;96203.31;;;12.08;100.00
11038;BME280;5572;49.540;11.932;2023-05-01T17:30:28;96201.00;;;12.02;100.00
11038;BME280;5572;49.540;11.932;2023-05-01T17:32:55;96208.03;;;12.03;100.00
11038;BME280;5572;49.540;11.932;2023-05-01T17:35:22;96196.66;;;11.93;100.00
11038;BME280;5572;49.540;11.932;2023-05-01T17:37:49;96202.44;;;12.00;100.00
11038;BME280;5572;49.540;11.932;2023-05-01T17:40:15;96193.81;;;11.98;100.00
11038;BME280;5572;49.540;11.932;2023-05-01T17:42:43;96197.38;;;12.06;100.00
11038;BME280;5572;49.540;11.932;2023-05-01T17:45:10;96205.88;;;11.92;100.00
11038;BME280;5572;49.540;11.932;2023-05-01T17:47:37;96201.00;;;12.02;100.00
11038;BME280;5572;49.540;11.932;2023-05-01T17:50:07;96209.81;;;12.07;100.00
11038;BME280;5572;49.540;11.932;2023-05-01T17:52:33;96216.72;;;11.92;100.00
11038;BME280;5572;49.540;11.932;2023-05-01T17:55:00;96220.34;;;11.87;100.00
11038;BME280;5572;49.540;11.932;2023-05-01T17:57:26;96216.63;;;11.83;100.00
11038;BME280;5572;49.540;11.932;2023-05-01T17:59:54;96220.72;;;11.94;100.00
11038;BME280;5572;49.540;11.932;2023-05-01T18:02:21;96232.47;;;11.90;100.00
11038;BME280;5572;49.540;11.932;2023-05-01T18:04:49;96232.19;;;11.78;100.00
11038;BME280;5572;49.540;11.932;2023-05-01T18:07:15;96232.50;;;11.76;100.00
11038;BME280;5572;49.540;11.932;2023-05-01T18:09:42;96250.56;;;11.67;100.00
11038;BME280;5572;49.540;11.932;2023-05-01T18:12:09;96253.66;;;11.74;100.00
11038;BME280;5572;49.540;11.932;2023-05-01T18:14:35;96247.63;;;11.64;100.00
11038;BME280;5572;49.540;11.932;2023-05-01T18:17:04;96263.50;;;11.57;100.00
11038;BME280;5572;49.540;11.932;2023-05-01T18:19:30;96268.28;;;11.33;100.00
11038;BME280;5572;49.540;11.932;2023-05-01T18:21:57;96250.16;;;11.47;100.00
11038;BME280;5572;49.540;11.932;2023-05-01T18:24:24;96259.28;;;11.37;100.00
11038;BME280;5572;49.540;11.932;2023-05-01T18:26:51;96258.47;;;11.50;100.00
11038;BME280;5572;49.540;11.932;2023-05-01T18:29:17;96263.50;;;11.57;100.00
11038;BME280;5572;49.540;11.932;2023-05-01T18:31:44;96261.47;;;11.49;100.00
11038;BME280;5572;49.540;11.932;2023-05-01T18:34:12;96265.22;;;11.53;100.00
11038;BME280;5572;49.540;11.932;2023-05-01T18:36:39;96268.50;;;11.36;100.00
11038;BME280;5572;49.540;11.932;2023-05-01T18:39:05;96267.28;;;11.42;100.00
11038;BME280;5572;49.540;11.932;2023-05-01T18:41:32;96273.41;;;11.34;100.00
11038;BME280;5572;49.540;11.932;2023-05-01T18:44:01;96283.13;;;11.49;100.00
11038;BME280;5572;49.540;11.932;2023-05-01T18:46:28;96279.13;;;11.46;100.00
11038;BME280;5572;49.540;11.932;2023-05-01T18:48:54;96287.03;;;11.43;100.00
11038;BME280;5572;49.540;11.932;2023-05-01T18:51:22;96287.94;;;11.52;100.00
11038;BME280;5572;49.540;11.932;2023-05-01T18:53:49;96288.44;;;11.54;100.00
11038;BME280;5572;49.540;11.932;2023-05-01T18:56:15;96298.53;;;11.48;100.00
11038;BME280;5572;49.540;11.932;2023-05-01T18:58:42;96305.97;;;11.43;100.00
11038;BME280;5572;49.540;11.932;2023-05-01T19:01:09;96304.38;;;11.42;100.00
11038;BME280;5572;49.540;11.932;2023-05-01T19:03:36;96312.19;;;11.43;100.00
11038;BME280;5572;49.540;11.932;2023-05-01T19:06:02;96309.81;;;11.42;100.00
11038;BME280;5572;49.540;11.932;2023-05-01T19:08:30;96315.59;;;11.49;100.00
11038;BME280;5572;49.540;11.932;2023-05-01T19:10:57;96310.97;;;11.49;100.00
11038;BME280;5572;49.540;11.932;2023-05-01T19:13:23;96315.69;;;11.44;100.00
11038;BME280;5572;49.540;11.932;2023-05-01T19:15:50;96311.38;;;11.43;100.00
11038;BME280;5572;49.540;11.932;2023-05-01T19:18:17;96318.41;;;11.44;100.00
11038;BME280;5572;49.540;11.932;2023-05-01T19:20:44;96322.13;;;11.48;100.00
11038;BME280;5572;49.540;11.932;2023-05-01T19:23:10;96316.38;;;11.36;100.00
11038;BME280;5572;49.540;11.932;2023-05-01T19:25:38;96317.50;;;11.35;100.00
11038;BME280;5572;49.540;11.932;2023-05-01T19:28:05;96321.78;;;11.22;100.00
11038;BME280;5572;49.540;11.932;2023-05-01T19:30:32;96322.38;;;11.19;100.00
11038;BME280;5572;49.540;11.932;2023-05-01T19:32:58;96325.97;;;11.02;100.00
11038;BME280;5572;49.540;11.932;2023-05-01T19:35:25;96332.19;;;11.02;100.00
11038;BME280;5572;49.540;11.932;2023-05-01T19:37:54;96314.34;;;11.01;100.00
11038;BME280;5572;49.540;11.932;2023-05-01T19:40:21;96325.63;;;10.90;100.00
11038;BME280;5572;49.540;11.932;2023-05-01T19:42:49;96321.63;;;10.87;100.00
11038;BME280;5572;49.540;11.932;2023-05-01T19:45:16;96334.81;;;10.75;100.00
11038;BME280;5572;49.540;11.932;2023-05-01T19:47:42;96340.16;;;10.62;100.00
11038;BME280;5572;49.540;11.932;2023-05-01T19:50:09;96341.72;;;10.68;100.00
11038;BME280;5572;49.540;11.932;2023-05-01T19:52:36;96345.72;;;10.52;100.00
11038;BME280;5572;49.540;11.932;2023-05-01T19:55:03;96356.47;;;10.38;100.00
11038;BME280;5572;49.540;11.932;2023-05-01T19:57:30;96362.75;;;10.34;100.00
11038;BME280;5572;49.540;11.932;2023-05-01T19:59:59;96359.47;;;10.37;100.00
11038;BME280;5572;49.540;11.932;2023-05-01T20:02:25;96370.91;;;10.29;100.00
11038;BME280;5572;49.540;11.932;2023-05-01T20:04:52;96378.16;;;10.15;100.00
11038;BME280;5572;49.540;11.932;2023-05-01T20:07:19;96348.50;;;10.10;100.00
11038;BME280;5572;49.540;11.932;2023-05-01T20:09:45;96354.00;;;10.05;100.00
11038;BME280;5572;49.540;11.932;2023-05-01T20:12:12;96358.56;;;10.05;100.00
11038;BME280;5572;49.540;11.932;2023-05-01T20:14:39;96360.88;;;9.93;100.00
11038;BME280;5572;49.540;11.932;2023-05-01T20:17:07;96364.50;;;10.07;100.00
11038;BME280;5572;49.540;11.932;2023-05-01T20:19:34;96369.03;;;9.88;100.00
11038;BME280;5572;49.540;11.932;2023-05-01T20:22:02;96373.28;;;9.70;100.00
11038;BME280;5572;49.540;11.932;2023-05-01T20:24:29;96383.97;;;9.57;100.00
11038;BME280;5572;49.540;11.932;2023-05-01T20:26:55;96382.03;;;9.62;100.00
11038;BME280;5572;49.540;11.932;2023-05-01T20:29:23;96387.66;;;9.66;100.00